Time;durP1;ratioP1;P1;durP2;ratioP2;P2;SDS_P1;SDS_P2;PMS_P1;PMS_P2;Temp;Humidity;BMP_temperature;BMP_pressure;BME280_temperature;BME280_humidity;BME280_pressure;Samples;Min_cycle;Max_cycle;Signal;HPM_P1;HPM_P2
2020/12/27 00:01:53;;;;;;;12.07;10.10;;;6.70;86.80;;;;;;5099933;28;20044;-60
2020/12/27 00:04:19;;;;;;;11.80;10.27;;;6.70;86.70;;;;;;5077388;28;20044;-61
2020/12/27 00:06:44;;;;;;;12.73;11.27;;;6.70;86.60;;;;;;5094444;28;20458;-60
2020/12/27 00:09:10;;;;;;;15.73;10.73;;;6.60;83.20;;;;;;5090791;28;20031;-61
2020/12/27 00:11:36;;;;;;;12.40;10.40;;;6.60;85.40;;;;;;5098994;28;20394;-61
2020/12/27 00:14:01;;;;;;;12.47;10.60;;;6.60;86.20;;;;;;5102354;28;20042;-61
2020/12/27 00:16:27;;;;;;;11.77;10.47;;;6.60;85.50;;;;;;5095281;28;20059;-61
2020/12/27 00:18:53;;;;;;;14.30;11.37;;;6.60;85.70;;;;;;5101387;28;20077;-60
2020/12/27 00:21:21;;;;;;;13.53;10.70;;;6.50;86.30;;;;;;5093171;28;20115;-60
2020/12/27 00:23:46;;;;;;;11.70;9.93;;;6.60;87.40;;;;;;5101329;27;20127;-62
2020/12/27 00:26:13;;;;;;;14.60;11.20;;;6.60;87.40;;;;;;5091597;28;20055;-61
2020/12/27 00:28:39;;;;;;;12.00;10.47;;;6.60;87.00;;;;;;5103454;27;20048;-61
2020/12/27 00:31:05;;;;;;;14.47;10.40;;;6.50;85.80;;;;;;5104052;27;20039;-60
2020/12/27 00:33:31;;;;;;;14.20;10.03;;;6.50;86.30;;;;;;5102480;28;20044;-61
2020/12/27 00:35:57;;;;;;;13.53;10.20;;;6.50;86.80;;;;;;5097679;28;20046;-61
2020/12/27 00:38:24;;;;;;;12.37;9.97;;;6.50;86.30;;;;;;5103512;28;20135;-61
2020/12/27 00:40:49;;;;;;;13.73;10.47;;;6.50;86.60;;;;;;5083093;28;20134;-61
2020/12/27 00:43:15;;;;;;;13.17;10.43;;;6.50;87.70;;;;;;5100993;28;20130;-61
2020/12/27 00:45:41;;;;;;;14.07;11.33;;;6.50;87.10;;;;;;5082617;28;20050;-60
2020/12/27 00:48:06;;;;;;;15.77;11.30;;;6.50;86.70;;;;;;5103608;28;20040;-61
2020/12/27 00:50:32;;;;;;;13.93;11.10;;;6.50;87.50;;;;;;5100707;28;20039;-60
2020/12/27 00:52:58;;;;;;;12.20;10.90;;;6.50;87.60;;;;;;5098368;28;20515;-61
2020/12/27 00:55:23;;;;;;;14.37;11.50;;;6.40;86.40;;;;;;5099524;28;20603;-61
2020/12/27 00:57:49;;;;;;;11.93;10.37;;;6.40;86.90;;;;;;5097767;27;20123;-61
2020/12/27 01:00:14;;;;;;;12.33;10.43;;;6.40;86.50;;;;;;5093291;28;20024;-61
2020/12/27 01:02:40;;;;;;;14.27;11.40;;;6.40;87.40;;;;;;5098269;28;20064;-61
2020/12/27 01:05:06;;;;;;;13.10;11.67;;;6.40;86.30;;;;;;5101223;28;20154;-61
2020/12/27 01:07:32;;;;;;;13.80;10.97;;;6.40;88.30;;;;;;5099992;28;20029;-60
2020/12/27 01:09:57;;;;;;;12.60;10.43;;;6.40;87.80;;;;;;5092832;28;20052;-61
2020/12/27 01:12:23;;;;;;;14.37;10.80;;;6.40;87.90;;;;;;5100015;27;20040;-60
2020/12/27 01:14:48;;;;;;;12.60;10.33;;;6.40;87.70;;;;;;5097435;28;20118;-61
2020/12/27 01:17:14;;;;;;;13.73;11.37;;;6.40;87.80;;;;;;5101015;28;20370;-61
2020/12/27 01:19:42;;;;;;;13.43;10.37;;;6.30;87.00;;;;;;5102078;28;20084;-61
2020/12/27 01:22:07;;;;;;;12.80;10.40;;;6.30;87.30;;;;;;5097164;28;20044;-61
2020/12/27 01:24:33;;;;;;;12.83;10.53;;;6.30;87.70;;;;;;5105907;27;20039;-60
2020/12/27 01:26:58;;;;;;;12.77;10.87;;;6.30;87.80;;;;;;5100678;27;20044;-60
2020/12/27 01:29:24;;;;;;;12.53;10.13;;;6.20;87.90;;;;;;5099128;27;20431;-60
2020/12/27 01:31:49;;;;;;;12.47;10.13;;;6.20;87.80;;;;;;5102532;27;20047;-61
2020/12/27 01:34:15;;;;;;;12.27;10.50;;;6.20;86.40;;;;;;5082442;28;20038;-60
2020/12/27 01:36:41;;;;;;;13.40;10.80;;;6.20;88.10;;;;;;5105776;28;20039;-60
2020/12/27 01:39:08;;;;;;;12.47;10.80;;;6.20;88.00;;;;;;5099115;27;20043;-60
2020/12/27 01:41:35;;;;;;;16.53;11.50;;;6.10;88.60;;;;;;5080241;28;20520;-60
2020/12/27 01:44:02;;;;;;;14.57;10.77;;;6.20;88.60;;;;;;5095673;27;20064;-61
2020/12/27 01:46:30;;;;;;;12.87;11.27;;;6.10;88.30;;;;;;5094121;28;20089;-61
2020/12/27 01:48:56;;;;;;;13.50;11.40;;;6.20;89.10;;;;;;5098247;27;20568;-61
2020/12/27 01:51:21;;;;;;;12.53;10.00;;;6.20;88.70;;;;;;5098452;28;20124;-61
2020/12/27 01:53:47;;;;;;;14.10;11.23;;;6.10;88.60;;;;;;5092444;27;20032;-60
2020/12/27 01:56:16;;;;;;;13.13;9.70;;;6.10;89.30;;;;;;5102665;28;20110;-61
2020/12/27 01:58:45;;;;;;;12.87;10.20;;;6.10;89.40;;;;;;5097985;28;20040;-60
2020/12/27 02:01:10;;;;;;;12.40;9.90;;;6.10;89.10;;;;;;5101206;28;20036;-61
2020/12/27 02:03:36;;;;;;;14.20;10.37;;;6.20;89.70;;;;;;5100114;27;20055;-60
2020/12/27 02:06:04;;;;;;;11.43;9.80;;;6.10;88.60;;;;;;5101358;27;20039;-60
2020/12/27 02:08:30;;;;;;;12.37;10.33;;;6.10;89.10;;;;;;5102934;28;20423;-60
2020/12/27 02:10:56;;;;;;;12.77;10.03;;;6.10;89.40;;;;;;5094749;28;20089;-60
2020/12/27 02:13:21;;;;;;;14.37;9.50;;;6.10;88.80;;;;;;5098343;28;20048;-60
2020/12/27 02:15:47;;;;;;;13.10;9.77;;;6.10;88.20;;;;;;5098975;28;20722;-60
2020/12/27 02:18:13;;;;;;;12.57;9.77;;;6.10;88.70;;;;;;5104066;28;20085;-60
2020/12/27 02:20:38;;;;;;;12.97;10.23;;;6.10;88.40;;;;;;5090814;28;20051;-60
2020/12/27 02:23:06;;;;;;;10.80;9.67;;;6.10;89.10;;;;;;5094797;28;20393;-61
2020/12/27 02:25:31;;;;;;;12.50;9.77;;;6.10;88.90;;;;;;5094166;28;20044;-61
2020/12/27 02:27:57;;;;;;;12.33;9.67;;;6.10;89.10;;;;;;5096255;28;20044;-61
2020/12/27 02:30:22;;;;;;;11.70;8.87;;;6.10;88.40;;;;;;5081044;28;20550;-61
2020/12/27 02:32:49;;;;;;;9.30;7.97;;;6.10;88.60;;;;;;5101290;28;20095;-60
2020/12/27 02:35:15;;;;;;;11.80;7.93;;;6.10;87.00;;;;;;5095840;28;20342;-60
2020/12/27 02:37:40;;;;;;;8.57;7.50;;;6.10;87.70;;;;;;5095753;27;20035;-60
2020/12/27 02:40:06;;;;;;;9.13;7.60;;;6.10;85.50;;;;;;5096693;27;20396;-60
2020/12/27 02:42:32;;;;;;;9.97;7.53;;;6.00;87.20;;;;;;5102824;28;20110;-60
2020/12/27 02:47:26;;;;;;;10.87;7.67;;;6.00;86.40;;;;;;5083174;28;20043;-61
2020/12/27 02:49:51;;;;;;;8.80;7.37;;;6.00;86.40;;;;;;5098621;28;20146;-60
2020/12/27 02:52:17;;;;;;;10.60;8.20;;;5.90;85.20;;;;;;5097032;28;20043;-61
2020/12/27 02:54:43;;;;;;;13.27;9.00;;;6.00;86.10;;;;;;5100630;28;20083;-59
2020/12/27 02:57:08;;;;;;;10.00;8.07;;;5.90;87.30;;;;;;5086829;28;20082;-60
2020/12/27 02:59:34;;;;;;;9.30;8.23;;;5.90;86.60;;;;;;5101674;28;20040;-61
2020/12/27 03:01:59;;;;;;;9.70;8.33;;;5.90;86.10;;;;;;5097838;28;20047;-59
2020/12/27 03:04:25;;;;;;;12.40;8.83;;;5.90;87.40;;;;;;5102988;28;20500;-60
2020/12/27 03:06:51;;;;;;;13.27;9.43;;;5.90;86.20;;;;;;5096387;28;20036;-61
2020/12/27 03:09:16;;;;;;;11.07;9.07;;;5.90;87.30;;;;;;5101144;28;20051;-60
2020/12/27 03:15:28;;;;;;;13.57;8.73;;;5.90;87.20;;;;;;5049434;28;20173;-60
2020/12/27 03:17:54;;;;;;;10.30;8.50;;;5.80;87.10;;;;;;5066873;28;20027;-60
2020/12/27 03:20:20;;;;;;;11.87;10.40;;;5.80;87.40;;;;;;5099879;28;20386;-60
2020/12/27 03:22:45;;;;;;;11.43;8.77;;;5.80;88.10;;;;;;5099111;28;20118;-61
2020/12/27 03:25:11;;;;;;;10.80;8.97;;;5.80;89.00;;;;;;5099534;28;20046;-60
2020/12/27 03:27:37;;;;;;;10.70;8.70;;;5.80;87.80;;;;;;5097542;28;20092;-61
2020/12/27 03:30:06;;;;;;;10.50;8.50;;;5.80;88.30;;;;;;5099711;28;20040;-61
2020/12/27 03:32:33;;;;;;;12.13;8.07;;;5.80;88.70;;;;;;5092670;28;20495;-61
2020/12/27 03:34:59;;;;;;;11.23;8.23;;;5.70;87.80;;;;;;5084880;28;20041;-60
2020/12/27 03:37:25;;;;;;;9.80;8.33;;;5.70;86.10;;;;;;5081044;28;22159;-61
2020/12/27 03:39:51;;;;;;;10.53;8.23;;;5.80;87.40;;;;;;5097660;28;20040;-61
2020/12/27 03:42:17;;;;;;;8.67;6.97;;;5.70;87.40;;;;;;5101941;28;20040;-61
2020/12/27 03:44:43;;;;;;;9.27;7.90;;;5.70;87.00;;;;;;5099792;28;20032;-61
2020/12/27 03:47:09;;;;;;;9.20;7.57;;;5.70;86.30;;;;;;5088722;28;20036;-61
2020/12/27 03:49:34;;;;;;;8.63;7.30;;;5.70;85.70;;;;;;5098789;28;20465;-60
2020/12/27 03:52:00;;;;;;;12.63;8.17;;;5.70;87.00;;;;;;5102126;28;20464;-61
2020/12/27 03:54:25;;;;;;;9.17;7.60;;;5.70;86.50;;;;;;5075635;28;20093;-60
2020/12/27 03:57:23;;;;;;;9.13;8.17;;;5.60;87.20;;;;;;5086367;28;20046;-60
2020/12/27 03:59:49;;;;;;;10.33;8.73;;;5.70;86.90;;;;;;5072151;28;20562;-60
2020/12/27 04:02:15;;;;;;;9.90;7.80;;;5.60;86.20;;;;;;5088523;28;20056;-60
2020/12/27 04:04:41;;;;;;;7.70;6.83;;;5.60;86.90;;;;;;5098437;28;20036;-61
2020/12/27 04:07:06;;;;;;;9.80;7.37;;;5.60;86.80;;;;;;5102944;28;20485;-60
2020/12/27 04:09:32;;;;;;;9.43;7.93;;;5.60;87.30;;;;;;5091837;28;20063;-61
2020/12/27 04:11:58;;;;;;;10.50;7.47;;;5.60;87.00;;;;;;5099259;28;20051;-61
2020/12/27 04:14:24;;;;;;;9.67;8.37;;;5.60;88.10;;;;;;5083055;28;20032;-60
2020/12/27 04:16:50;;;;;;;8.97;7.43;;;5.60;87.40;;;;;;5102257;27;20055;-60
2020/12/27 04:19:15;;;;;;;10.60;8.20;;;5.60;87.10;;;;;;5099511;27;20046;-60
2020/12/27 04:21:47;;;;;;;9.50;7.53;;;5.50;86.70;;;;;;5099884;28;20044;-60
2020/12/27 04:24:14;;;;;;;8.70;7.73;;;5.50;87.20;;;;;;5093402;28;20043;-61
2020/12/27 04:26:40;;;;;;;10.17;7.47;;;5.50;88.60;;;;;;5097440;28;20047;-60
2020/12/27 04:29:06;;;;;;;9.03;8.07;;;5.50;87.80;;;;;;5095277;27;20475;-60
2020/12/27 04:31:32;;;;;;;11.97;8.10;;;5.50;88.00;;;;;;5101207;28;20474;-61
2020/12/27 04:33:58;;;;;;;9.43;8.03;;;5.50;87.90;;;;;;5099653;28;20065;-61
2020/12/27 04:36:24;;;;;;;10.63;7.40;;;5.50;88.10;;;;;;5102025;28;20051;-60
2020/12/27 04:38:50;;;;;;;8.30;7.40;;;5.50;87.30;;;;;;5106486;28;20039;-60
2020/12/27 04:41:17;;;;;;;9.77;7.83;;;5.50;88.40;;;;;;5097894;27;20064;-61
2020/12/27 04:43:45;;;;;;;8.93;7.47;;;5.50;88.00;;;;;;5088392;28;20171;-60
2020/12/27 04:46:12;;;;;;;10.90;7.90;;;5.50;88.20;;;;;;5096500;28;20489;-60
2020/12/27 04:48:39;;;;;;;11.10;8.20;;;5.50;88.00;;;;;;5098763;28;20044;-60
2020/12/27 04:51:06;;;;;;;9.77;7.60;;;5.50;87.80;;;;;;5095387;28;20508;-60
2020/12/27 04:53:34;;;;;;;7.90;6.90;;;5.50;88.00;;;;;;5098411;28;20036;-60
2020/12/27 04:56:01;;;;;;;8.50;7.50;;;5.50;89.20;;;;;;5096529;28;20116;-60
2020/12/27 04:58:28;;;;;;;10.87;8.07;;;5.50;87.20;;;;;;5102040;27;20040;-60
2020/12/27 05:00:58;;;;;;;8.50;7.67;;;5.40;88.80;;;;;;5079847;28;20130;-60
2020/12/27 05:03:24;;;;;;;9.30;7.63;;;5.40;88.10;;;;;;5100280;28;20044;-60
2020/12/27 05:05:54;;;;;;;10.40;8.13;;;5.40;87.40;;;;;;5094757;28;20223;-60
2020/12/27 05:08:20;;;;;;;10.97;8.03;;;5.40;87.50;;;;;;5102325;27;20042;-60
2020/12/27 05:10:46;;;;;;;10.73;7.87;;;5.40;87.80;;;;;;5103929;28;20051;-60
2020/12/27 05:13:46;;;;;;;12.67;7.57;;;5.30;87.10;;;;;;5104312;28;20143;-60
2020/12/27 05:16:15;;;;;;;9.50;7.60;;;5.30;87.70;;;;;;5071756;28;20123;-61
2020/12/27 05:18:43;;;;;;;9.00;7.43;;;5.20;87.50;;;;;;5098079;27;20081;-61
2020/12/27 05:21:09;;;;;;;9.27;7.47;;;5.30;89.00;;;;;;5103385;28;20497;-60
2020/12/27 05:23:36;;;;;;;10.07;7.77;;;5.30;88.00;;;;;;5108239;27;20040;-60
2020/12/27 05:26:06;;;;;;;10.73;7.40;;;5.30;87.50;;;;;;5096436;27;20382;-61
2020/12/27 05:28:33;;;;;;;8.87;7.53;;;5.20;87.20;;;;;;5092768;28;20401;-60
2020/12/27 05:31:09;;;;;;;8.40;6.77;;;5.20;88.30;;;;;;5105354;28;20047;-60
2020/12/27 05:33:38;;;;;;;10.10;7.47;;;5.30;88.20;;;;;;5081009;28;20028;-60
2020/12/27 05:36:03;;;;;;;7.83;6.97;;;5.30;87.60;;;;;;5102764;28;20126;-60
2020/12/27 05:38:30;;;;;;;8.63;6.87;;;5.30;87.20;;;;;;5098753;28;20461;-60
2020/12/27 05:40:56;;;;;;;7.63;6.83;;;5.20;87.80;;;;;;5081061;28;20067;-61
2020/12/27 05:43:22;;;;;;;9.73;7.10;;;5.20;86.90;;;;;;5092314;28;20054;-61
2020/12/27 05:45:48;;;;;;;8.00;7.17;;;5.20;86.90;;;;;;5087379;28;20481;-60
2020/12/27 05:48:13;;;;;;;8.13;6.40;;;5.20;86.60;;;;;;5101916;28;20040;-61
2020/12/27 05:50:41;;;;;;;8.17;7.07;;;5.20;87.00;;;;;;5097026;28;20123;-60
2020/12/27 05:53:23;;;;;;;9.43;6.47;;;5.20;85.40;;;;;;5085318;28;20044;-60
2020/12/27 05:55:53;;;;;;;9.30;7.03;;;5.20;86.10;;;;;;5058420;28;20043;-60
2020/12/27 05:58:21;;;;;;;11.67;6.80;;;5.10;87.00;;;;;;5081395;27;20047;-60
2020/12/27 06:00:54;;;;;;;8.70;6.47;;;5.10;86.10;;;;;;5094886;27;20051;-59
2020/12/27 06:03:28;;;;;;;9.00;6.77;;;5.10;87.00;;;;;;5090072;27;20131;-60
2020/12/27 06:06:42;;;;;;;8.15;6.50;;;5.20;87.00;;;;;;5093437;28;20036;-60
2020/12/27 06:09:08;;;;;;;10.20;7.33;;;5.10;86.20;;;;;;5050580;27;20036;-60
2020/12/27 06:11:45;;;;;;;8.07;6.97;;;5.10;86.90;;;;;;5099962;28;20089;-61
2020/12/27 06:14:16;;;;;;;9.20;7.40;;;5.10;86.90;;;;;;5091477;28;20550;-61
2020/12/27 06:16:49;;;;;;;8.47;6.70;;;5.10;87.10;;;;;;5088226;28;20034;-60
2020/12/27 06:19:23;;;;;;;9.33;6.37;;;5.10;86.80;;;;;;5095652;28;20119;-61
2020/12/27 06:22:06;;;;;;;8.48;6.18;;;5.10;86.20;;;;;;5099043;27;20534;-60
2020/12/27 06:24:33;;;;;;;9.20;7.57;;;5.10;86.60;;;;;;5081858;28;20471;-60
2020/12/27 06:26:59;;;;;;;8.77;7.43;;;5.10;87.60;;;;;;5095935;27;20117;-60
2020/12/27 06:29:44;;;;;;;9.83;7.80;;;5.10;87.80;;;;;;5095073;28;20097;-61
2020/12/27 06:32:16;;;;;;;9.38;7.05;;;5.10;87.80;;;;;;5101775;28;20541;-60
2020/12/27 06:34:42;;;;;;;7.80;6.37;;;5.10;86.60;;;;;;5100940;28;20036;-61
2020/12/27 06:37:08;;;;;;;9.13;6.60;;;5.00;86.20;;;;;;5104136;28;20657;-60
2020/12/27 06:39:33;;;;;;;8.30;6.77;;;5.10;86.50;;;;;;5095988;28;20039;-60
2020/12/27 06:42:11;;;;;;;7.97;6.60;;;5.10;86.50;;;;;;5095852;28;20059;-60
2020/12/27 06:44:40;;;;;;;9.07;6.33;;;5.10;86.00;;;;;;5098892;28;20033;-61
2020/12/27 06:47:06;;;;;;;9.17;6.50;;;5.10;86.40;;;;;;5088502;28;20042;-60
2020/12/27 06:49:32;;;;;;;9.83;6.97;;;5.10;85.00;;;;;;5099330;27;20028;-60
2020/12/27 06:52:20;;;;;;;8.70;6.73;;;5.00;85.00;;;;;;5078420;28;20032;-60
2020/12/27 06:54:50;;;;;;;9.33;6.60;;;5.10;86.20;;;;;;5079124;28;21494;-60
2020/12/27 06:57:37;;;;;;;10.93;6.80;;;5.10;85.90;;;;;;5101537;28;20427;-60
2020/12/27 07:00:23;;;;;;;9.40;7.00;;;5.10;85.10;;;;;;5098154;28;20123;-60
2020/12/27 07:03:04;;;;;;;8.17;6.73;;;5.20;85.80;;;;;;5098398;28;20040;-60
2020/12/27 07:05:31;;;;;;;9.57;7.73;;;5.10;85.30;;;;;;5098613;28;20044;-60
2020/12/27 07:07:57;;;;;;;10.20;6.90;;;5.30;85.50;;;;;;5102464;28;20058;-60
2020/12/27 07:10:26;;;;;;;8.30;7.07;;;5.30;86.80;;;;;;5096496;28;20412;-60
2020/12/27 07:13:00;;;;;;;9.40;7.03;;;5.30;84.80;;;;;;5099717;28;20040;-60
2020/12/27 07:15:27;;;;;;;8.60;6.93;;;5.40;84.50;;;;;;5099962;28;20490;-60
2020/12/27 07:17:54;;;;;;;10.17;7.07;;;5.50;85.80;;;;;;5090012;28;20165;-60
2020/12/27 07:20:22;;;;;;;8.43;6.73;;;5.50;84.00;;;;;;5082938;28;20032;-60
2020/12/27 07:22:53;;;;;;;11.93;6.80;;;5.60;84.50;;;;;;5097502;28;20032;-60
2020/12/27 07:25:22;;;;;;;7.57;6.33;;;5.50;83.30;;;;;;5098316;28;20031;-60
2020/12/27 07:27:48;;;;;;;8.60;6.67;;;5.60;82.20;;;;;;5093505;28;20072;-60
2020/12/27 07:30:16;;;;;;;11.00;6.93;;;5.60;83.60;;;;;;5102047;28;20039;-60
2020/12/27 07:32:50;;;;;;;8.37;5.90;;;5.50;82.40;;;;;;5101586;28;20035;-60
2020/12/27 07:35:16;;;;;;;7.40;6.63;;;5.60;83.10;;;;;;5103601;28;20044;-61
2020/12/27 07:37:45;;;;;;;8.40;6.57;;;5.50;81.00;;;;;;5107372;27;20308;-60
2020/12/27 07:40:11;;;;;;;7.83;6.13;;;5.50;82.50;;;;;;5102503;28;20074;-60
2020/12/27 07:42:37;;;;;;;7.23;6.37;;;5.60;82.10;;;;;;5101779;28;20047;-60
2020/12/27 07:45:21;;;;;;;8.67;6.17;;;5.50;81.50;;;;;;5098023;27;20050;-60
2020/12/27 07:47:47;;;;;;;8.00;6.40;;;5.60;81.90;;;;;;5093775;28;20024;-60
2020/12/27 07:50:17;;;;;;;8.60;5.97;;;5.60;82.30;;;;;;5106812;28;21020;-60
2020/12/27 07:52:54;;;;;;;9.73;7.77;;;5.60;80.30;;;;;;5095016;27;20044;-60
2020/12/27 07:55:21;;;;;;;7.67;6.27;;;5.70;80.50;;;;;;5076229;28;20173;-60
2020/12/27 07:57:47;;;;;;;9.23;6.60;;;5.60;80.80;;;;;;5098048;28;20119;-60
2020/12/27 08:00:13;;;;;;;9.17;6.30;;;5.60;81.90;;;;;;5104945;27;20127;-59
2020/12/27 08:02:42;;;;;;;8.60;6.53;;;5.60;80.10;;;;;;5093606;27;20040;-60
2020/12/27 08:05:12;;;;;;;9.73;6.70;;;5.60;80.40;;;;;;5098443;28;20044;-60
2020/12/27 08:07:39;;;;;;;7.30;5.80;;;5.70;82.20;;;;;;5099374;28;20036;-60
2020/12/27 08:10:22;;;;;;;7.77;6.27;;;5.60;81.10;;;;;;5099664;28;20096;-59
2020/12/27 08:12:49;;;;;;;9.23;7.10;;;5.70;80.20;;;;;;5100208;28;20441;-60
2020/12/27 08:15:15;;;;;;;7.80;6.23;;;5.60;80.20;;;;;;5098180;28;20035;-59
2020/12/27 08:18:09;;;;;;;7.60;5.70;;;5.60;80.30;;;;;;5099667;28;20063;-59
2020/12/27 08:20:47;;;;;;;7.43;6.13;;;5.60;79.00;;;;;;5077658;28;20047;-59
2020/12/27 08:23:13;;;;;;;8.50;6.67;;;5.60;79.30;;;;;;5098931;28;20036;-59
2020/12/27 08:25:40;;;;;;;6.80;5.83;;;5.60;80.70;;;;;;5101224;28;20400;-59
2020/12/27 08:28:12;;;;;;;9.13;6.13;;;5.50;80.10;;;;;;5100075;27;20100;-59
2020/12/27 08:30:38;;;;;;;8.37;6.23;;;5.50;79.10;;;;;;5101413;27;20047;-59
2020/12/27 08:33:05;;;;;;;8.63;5.97;;;5.50;78.50;;;;;;5099534;28;20035;-59
2020/12/27 08:35:31;;;;;;;7.93;6.20;;;5.50;79.60;;;;;;5100705;28;20032;-59
2020/12/27 08:38:27;;;;;;;7.80;5.90;;;5.50;79.50;;;;;;5090168;28;20039;-60
2020/12/27 08:41:16;;;;;;;9.03;6.73;;;5.50;77.40;;;;;;5040754;28;20081;-59
2020/12/27 08:44:07;;;;;;;9.00;6.40;;;5.50;77.80;;;;;;5071952;28;20035;-60
2020/12/27 08:46:41;;;;;;;10.07;7.10;;;5.50;79.00;;;;;;5076442;28;20038;-59
2020/12/27 08:49:33;;;;;;;7.83;6.03;;;5.60;80.70;;;;;;5085461;28;20032;-59
2020/12/27 08:52:18;;;;;;;7.53;6.17;;;5.60;77.70;;;;;;5036313;28;20040;-60
2020/12/27 08:54:44;;;;;;;8.07;6.38;;;5.60;79.50;;;;;;5095179;28;20130;-60
2020/12/27 08:57:14;;;;;;;8.20;6.90;;;5.60;77.70;;;;;;5094870;27;20051;-60
2020/12/27 08:59:39;;;;;;;8.57;6.40;;;5.60;77.90;;;;;;5097111;27;20040;-60
2020/12/27 09:02:11;;;;;;;7.77;5.70;;;5.70;78.90;;;;;;5104428;28;20044;-60
2020/12/27 09:04:37;;;;;;;8.03;6.47;;;5.70;79.40;;;;;;5102325;28;20493;-60
2020/12/27 09:07:03;;;;;;;8.73;5.73;;;5.70;77.70;;;;;;5092299;28;20047;-60
2020/12/27 09:09:29;;;;;;;8.97;6.27;;;5.70;75.60;;;;;;5101376;27;20042;-60
2020/12/27 09:11:55;;;;;;;8.60;6.00;;;5.80;78.70;;;;;;5097486;28;20115;-60
2020/12/27 09:14:49;;;;;;;7.97;6.03;;;5.80;78.30;;;;;;5096275;28;20061;-60
2020/12/27 09:17:17;;;;;;;8.52;5.72;;;5.80;76.30;;;;;;5074714;27;20070;-60
2020/12/27 09:19:46;;;;;;;10.93;5.77;;;5.80;77.30;;;;;;5097451;28;20028;-60
2020/12/27 09:22:12;;;;;;;7.73;5.63;;;5.90;76.30;;;;;;5094719;27;20715;-60
2020/12/27 09:24:37;;;;;;;8.00;5.90;;;5.90;78.50;;;;;;5083115;28;20505;-59
2020/12/27 09:27:11;;;;;;;7.97;6.43;;;6.00;78.10;;;;;;5096864;27;20042;-59
2020/12/27 09:29:38;;;;;;;9.93;6.60;;;6.00;76.50;;;;;;5097176;28;20389;-60
2020/12/27 09:32:11;;;;;;;7.17;5.67;;;5.90;77.60;;;;;;5103681;27;20038;-60
2020/12/27 09:34:37;;;;;;;10.77;6.00;;;5.90;74.20;;;;;;5085216;28;20066;-59
2020/12/27 09:37:23;;;;;;;7.20;5.63;;;6.00;78.20;;;;;;5081555;28;20055;-59
2020/12/27 09:39:56;;;;;;;8.00;6.03;;;6.00;78.20;;;;;;5095264;28;20093;-58
2020/12/27 09:42:29;;;;;;;7.70;6.17;;;6.00;76.70;;;;;;5101179;27;20078;-60
2020/12/27 09:44:56;;;;;;;8.63;5.90;;;6.10;77.10;;;;;;5086838;28;20382;-59
2020/12/27 09:47:26;;;;;;;7.43;5.90;;;6.00;75.50;;;;;;5100854;28;20389;-59
2020/12/27 09:50:03;;;;;;;9.13;6.23;;;6.00;75.50;;;;;;5100343;27;20051;-58
2020/12/27 09:52:29;;;;;;;7.10;6.10;;;6.10;77.40;;;;;;5096147;28;20035;-58
2020/12/27 09:54:54;;;;;;;10.60;5.80;;;6.10;76.00;;;;;;5097329;28;20048;-59
2020/12/27 09:57:22;;;;;;;8.47;6.17;;;6.20;76.30;;;;;;5098457;28;20505;-60
2020/12/27 09:59:49;;;;;;;7.37;5.57;;;6.20;76.30;;;;;;5098746;28;20104;-59
2020/12/27 10:02:17;;;;;;;6.90;5.47;;;6.30;76.10;;;;;;5093719;27;20070;-60
2020/12/27 10:04:43;;;;;;;7.30;5.67;;;6.30;72.40;;;;;;5099097;28;20442;-59
2020/12/27 10:07:09;;;;;;;8.30;5.73;;;6.30;73.80;;;;;;5093660;28;20048;-59
2020/12/27 10:09:34;;;;;;;6.67;5.57;;;6.40;75.30;;;;;;5092787;28;20036;-58
2020/12/27 10:12:01;;;;;;;11.67;5.77;;;6.50;76.00;;;;;;5083845;28;20028;-60
2020/12/27 10:14:27;;;;;;;9.67;6.30;;;6.60;75.00;;;;;;5098825;27;20500;-59
2020/12/27 10:16:56;;;;;;;8.00;5.83;;;6.50;75.10;;;;;;5099049;28;20024;-59
2020/12/27 10:19:22;;;;;;;7.83;6.10;;;6.60;75.60;;;;;;5092621;28;20591;-58
2020/12/27 10:21:48;;;;;;;8.17;5.37;;;6.50;75.40;;;;;;5096560;28;20126;-60
2020/12/27 10:24:15;;;;;;;8.10;6.27;;;6.40;73.60;;;;;;5093296;28;20116;-59
2020/12/27 10:26:41;;;;;;;7.77;6.07;;;6.30;74.00;;;;;;5093980;28;20055;-59
2020/12/27 10:29:06;;;;;;;8.13;5.73;;;6.40;75.90;;;;;;5092523;27;20048;-59
2020/12/27 10:31:32;;;;;;;11.03;5.87;;;6.50;75.10;;;;;;5080025;28;20527;-59
2020/12/27 10:33:59;;;;;;;12.93;6.87;;;6.50;74.60;;;;;;5097495;28;20039;-58
2020/12/27 10:36:25;;;;;;;7.77;6.67;;;6.50;72.10;;;;;;5102085;28;20036;-59
2020/12/27 10:38:50;;;;;;;9.37;6.67;;;6.60;75.00;;;;;;5094761;27;20670;-59
2020/12/27 10:41:17;;;;;;;7.97;6.07;;;6.70;74.90;;;;;;5095045;28;20048;-60
2020/12/27 10:43:49;;;;;;;9.77;6.47;;;6.70;74.60;;;;;;5097547;28;20535;-59
2020/12/27 10:46:16;;;;;;;8.00;5.37;;;6.60;73.60;;;;;;5101611;28;20057;-60
2020/12/27 10:48:42;;;;;;;8.50;6.00;;;6.60;72.70;;;;;;5095845;28;20036;-57
2020/12/27 10:51:08;;;;;;;9.30;5.90;;;6.60;74.30;;;;;;5095556;28;20101;-59
2020/12/27 10:53:34;;;;;;;6.90;5.97;;;6.70;72.50;;;;;;5094591;28;20401;-60
2020/12/27 10:55:59;;;;;;;7.73;6.27;;;6.70;73.30;;;;;;5096620;28;20051;-59
2020/12/27 10:58:25;;;;;;;7.60;6.10;;;6.80;74.70;;;;;;5093657;28;20043;-59
2020/12/27 11:00:51;;;;;;;9.17;6.27;;;6.80;74.30;;;;;;5090787;28;20051;-59
2020/12/27 11:03:16;;;;;;;7.07;5.73;;;6.80;73.40;;;;;;5098231;28;20028;-58
2020/12/27 11:05:42;;;;;;;7.97;5.20;;;6.90;74.00;;;;;;5089562;28;20541;-58
2020/12/27 11:08:08;;;;;;;9.73;6.53;;;7.00;73.30;;;;;;5097668;28;20052;-60
2020/12/27 11:10:34;;;;;;;7.93;6.40;;;7.00;74.70;;;;;;5096138;27;20442;-59
2020/12/27 11:13:00;;;;;;;10.77;7.27;;;7.00;73.60;;;;;;5098328;28;20039;-59
2020/12/27 11:16:07;;;;;;;9.77;6.23;;;7.00;74.10;;;;;;5080047;28;20039;-60
2020/12/27 11:18:33;;;;;;;7.60;6.50;;;7.00;73.20;;;;;;5066671;28;20554;-60
2020/12/27 11:20:58;;;;;;;9.83;6.70;;;7.10;73.90;;;;;;5096747;28;20040;-60
2020/12/27 11:23:24;;;;;;;9.60;7.10;;;7.20;76.20;;;;;;5092823;28;20067;-60
2020/12/27 11:25:50;;;;;;;8.83;6.77;;;7.20;75.10;;;;;;5079839;28;20485;-58
2020/12/27 11:28:15;;;;;;;9.50;6.60;;;7.10;74.90;;;;;;5093865;28;20046;-60
2020/12/27 11:30:41;;;;;;;8.73;6.93;;;7.20;75.00;;;;;;5096938;28;20100;-60
2020/12/27 11:33:06;;;;;;;10.63;7.40;;;7.10;72.20;;;;;;5099592;28;20036;-60
2020/12/27 11:35:32;;;;;;;9.13;6.80;;;7.20;75.30;;;;;;5083263;28;20480;-60
2020/12/27 11:37:57;;;;;;;11.87;7.20;;;7.30;74.40;;;;;;5092709;28;20036;-60
2020/12/27 11:40:23;;;;;;;10.40;7.17;;;7.40;73.50;;;;;;5086999;28;20040;-60
2020/12/27 11:42:49;;;;;;;11.60;7.73;;;7.30;74.30;;;;;;5073143;28;20501;-60
2020/12/27 11:45:14;;;;;;;8.97;6.83;;;7.30;74.10;;;;;;5098600;28;20036;-58
2020/12/27 11:47:40;;;;;;;13.37;7.20;;;7.20;71.00;;;;;;5083446;28;20038;-59
2020/12/27 11:50:06;;;;;;;14.33;7.60;;;7.20;72.70;;;;;;5094871;28;20043;-60
2020/12/27 11:52:32;;;;;;;9.03;6.77;;;7.30;74.50;;;;;;5084146;28;20035;-58
2020/12/27 11:54:58;;;;;;;12.17;7.10;;;7.30;74.20;;;;;;5091704;28;20070;-59
2020/12/27 11:57:23;;;;;;;10.47;6.90;;;7.40;73.10;;;;;;5091642;28;20024;-59
2020/12/27 11:59:49;;;;;;;9.03;7.50;;;7.40;71.80;;;;;;5095519;28;20524;-59
2020/12/27 12:02:15;;;;;;;7.80;6.70;;;7.50;73.90;;;;;;5084290;28;20036;-59
2020/12/27 12:04:40;;;;;;;8.60;6.67;;;7.50;74.70;;;;;;5082439;28;20043;-59
2020/12/27 12:07:06;;;;;;;8.93;7.30;;;7.50;74.90;;;;;;5073870;28;20040;-59
2020/12/27 12:09:32;;;;;;;9.67;6.23;;;7.50;70.70;;;;;;5097289;28;20044;-57
2020/12/27 12:11:57;;;;;;;9.53;6.20;;;7.50;74.60;;;;;;5095389;28;20035;-59
2020/12/27 12:14:23;;;;;;;8.90;6.13;;;7.50;73.80;;;;;;5076445;28;20108;-59
2020/12/27 12:16:49;;;;;;;10.57;7.47;;;7.50;73.40;;;;;;5101010;28;20118;-59
2020/12/27 12:19:14;;;;;;;6.93;5.47;;;7.60;72.10;;;;;;5091719;28;20443;-59
2020/12/27 12:21:40;;;;;;;15.27;6.47;;;7.60;73.20;;;;;;5096033;28;20495;-58
2020/12/27 12:24:06;;;;;;;8.60;6.10;;;7.70;73.90;;;;;;5095768;27;20079;-60
2020/12/27 12:26:33;;;;;;;9.50;6.33;;;7.60;74.60;;;;;;5100812;28;20111;-60
2020/12/27 12:29:00;;;;;;;9.53;6.90;;;7.60;71.70;;;;;;5093100;28;20048;-58
2020/12/27 12:31:27;;;;;;;8.90;6.73;;;7.70;72.10;;;;;;5102637;28;20040;-60
2020/12/27 12:33:53;;;;;;;7.83;7.03;;;7.70;72.40;;;;;;5098456;27;20484;-59
2020/12/27 12:36:24;;;;;;;9.10;6.80;;;7.70;73.60;;;;;;5105323;28;20799;-60
2020/12/27 12:38:51;;;;;;;13.13;6.77;;;7.70;72.50;;;;;;5099226;27;20397;-60
2020/12/27 12:41:25;;;;;;;9.40;6.93;;;7.60;71.20;;;;;;5104056;28;20058;-57
2020/12/27 12:43:51;;;;;;;;;;;7.50;73.40;;;;;;5095434;28;20028;-59
2020/12/27 12:46:18;;;;;;;10.17;6.70;;;7.50;71.50;;;;;;5102518;28;19986;-59
2020/12/27 12:48:44;;;;;;;6.70;5.87;;;7.50;73.70;;;;;;5094990;28;20113;-59
2020/12/27 12:51:10;;;;;;;10.27;7.57;;;7.40;73.80;;;;;;5101809;28;20036;-59
2020/12/27 12:53:36;;;;;;;10.07;8.37;;;7.40;73.40;;;;;;5099536;28;20374;-59
2020/12/27 12:56:02;;;;;;;10.60;8.37;;;7.30;74.20;;;;;;5097474;28;20392;-59
2020/12/27 12:58:28;;;;;;;10.43;9.00;;;7.40;74.40;;;;;;5106314;27;20144;-59
2020/12/27 13:00:54;;;;;;;11.03;9.67;;;7.50;76.50;;;;;;5074751;28;20465;-60
2020/12/27 13:03:20;;;;;;;10.60;9.23;;;7.40;76.30;;;;;;5081839;28;20626;-59